createdAt,value
2019-02-14T00:00:22.615Z,8.67
2019-02-14T00:01:24.028Z,8.63
2019-02-14T00:02:25.446Z,8.67
2019-02-14T00:03:26.835Z,8.67
2019-02-14T00:04:28.248Z,8.70
2019-02-14T00:05:29.657Z,8.70
2019-02-14T00:06:31.080Z,8.64
2019-02-14T00:07:32.480Z,8.61
2019-02-14T00:08:33.876Z,8.65
2019-02-14T00:09:35.328Z,8.63
2019-02-14T00:10:36.732Z,8.67
2019-02-14T00:11:38.137Z,8.65
2019-02-14T00:12:39.537Z,8.68
2019-02-14T00:13:40.959Z,8.67
2019-02-14T00:14:42.384Z,8.70
2019-02-14T00:15:43.787Z,8.61
2019-02-14T00:16:45.195Z,8.68
2019-02-14T00:17:46.601Z,8.61
2019-02-14T00:18:48.045Z,8.71
2019-02-14T00:19:49.449Z,8.71
2019-02-14T00:20:50.842Z,8.61
2019-02-14T00:21:52.264Z,8.70
2019-02-14T00:22:53.662Z,8.68
2019-02-14T00:23:55.064Z,8.70
2019-02-14T00:24:56.458Z,8.65
2019-02-14T00:25:57.859Z,8.71
2019-02-14T00:26:59.282Z,8.71
2019-02-14T00:28:00.670Z,8.65
2019-02-14T00:29:02.060Z,8.67
2019-02-14T00:30:03.514Z,8.68
2019-02-14T00:31:04.910Z,8.67
2019-02-14T00:32:06.305Z,8.67
2019-02-14T00:33:07.702Z,8.71
2019-02-14T00:34:09.127Z,8.68
2019-02-14T00:35:10.506Z,8.68
2019-02-14T00:36:11.913Z,8.64
2019-02-14T00:37:13.328Z,8.71
2019-02-14T00:38:14.741Z,8.65
2019-02-14T00:39:16.133Z,8.71
2019-02-14T00:40:17.531Z,8.67
2019-02-14T00:41:18.945Z,8.71
2019-02-14T00:42:20.360Z,8.68
2019-02-14T00:43:21.763Z,8.65
2019-02-14T00:44:23.167Z,8.65
2019-02-14T00:45:24.575Z,8.65
2019-02-14T00:46:25.982Z,8.71
2019-02-14T00:47:27.379Z,8.78
2019-02-14T00:48:28.784Z,8.76
2019-02-14T00:49:30.193Z,8.68
2019-02-14T00:50:31.625Z,8.63
2019-02-14T00:51:33.006Z,8.71
2019-02-14T00:52:35.107Z,8.60
2019-02-14T00:53:36.513Z,8.58
2019-02-14T00:54:37.912Z,8.63
2019-02-14T00:55:39.309Z,8.61
2019-02-14T00:56:40.731Z,8.61
2019-02-14T00:57:42.140Z,8.64
2019-02-14T00:58:43.546Z,8.63
2019-02-14T00:59:44.934Z,8.65
2019-02-14T01:00:46.352Z,8.61
2019-02-14T01:01:47.766Z,8.64
2019-02-14T01:02:49.158Z,8.67
2019-02-14T01:03:50.563Z,8.63
2019-02-14T01:04:51.999Z,8.61
2019-02-14T01:05:53.397Z,8.60
2019-02-14T01:06:54.784Z,8.68
2019-02-14T01:07:56.181Z,8.58
2019-02-14T01:08:57.595Z,8.57
2019-02-14T01:09:58.989Z,8.60
2019-02-14T01:11:00.401Z,8.70
2019-02-14T01:12:01.820Z,8.60
2019-02-14T01:13:03.210Z,8.63
2019-02-14T01:14:04.635Z,8.64
2019-02-14T01:15:06.043Z,8.61
2019-02-14T01:16:07.449Z,8.64
2019-02-14T01:17:08.843Z,8.61
2019-02-14T01:18:10.262Z,8.60
2019-02-14T01:19:11.671Z,8.63
2019-02-14T01:20:13.069Z,8.64
2019-02-14T01:21:14.467Z,8.58
2019-02-14T01:22:15.882Z,8.63
2019-02-14T01:23:17.293Z,8.55
2019-02-14T01:24:18.698Z,8.61
2019-02-14T01:25:20.094Z,8.61
2019-02-14T01:26:21.500Z,8.58
2019-02-14T01:27:22.901Z,8.57
2019-02-14T01:28:24.298Z,8.64
2019-02-14T01:29:25.715Z,8.61
2019-02-14T01:30:27.110Z,8.60
2019-02-14T01:31:28.520Z,8.65
2019-02-14T01:32:29.908Z,8.64
2019-02-14T01:33:31.322Z,8.61
2019-02-14T01:34:32.709Z,8.54
2019-02-14T01:35:41.654Z,8.65
2019-02-14T01:36:35.510Z,8.52
2019-02-14T01:37:36.912Z,8.55
2019-02-14T01:38:38.342Z,8.64
2019-02-14T01:39:39.775Z,8.64
2019-02-14T01:40:41.181Z,8.58
2019-02-14T01:41:42.601Z,8.60
2019-02-14T01:42:44.019Z,8.61
2019-02-14T01:43:46.015Z,8.67
2019-02-14T01:44:47.409Z,8.65
2019-02-14T01:45:48.846Z,8.64
2019-02-14T01:46:50.264Z,8.54
2019-02-14T01:47:51.665Z,8.60
2019-02-14T01:48:53.080Z,8.63
2019-02-14T01:49:54.514Z,8.52
2019-02-14T01:50:55.941Z,8.58
2019-02-14T01:51:57.353Z,8.49
2019-02-14T01:52:58.769Z,8.55
2019-02-14T01:54:00.168Z,8.55
2019-02-14T01:55:01.621Z,8.50
2019-02-14T01:56:03.027Z,8.63
2019-02-14T01:57:04.432Z,8.60
2019-02-14T01:58:05.876Z,8.55
2019-02-14T01:59:07.292Z,8.61
2019-02-14T02:00:09.512Z,8.55
2019-02-14T02:01:10.960Z,8.54
2019-02-14T02:02:12.390Z,8.57
2019-02-14T02:03:13.792Z,8.57
2019-02-14T02:04:15.182Z,8.54
2019-02-14T02:05:16.591Z,8.54
2019-02-14T02:06:17.997Z,8.58
2019-02-14T02:07:19.410Z,8.50
2019-02-14T02:08:20.812Z,8.58
2019-02-14T02:09:22.233Z,8.57
2019-02-14T02:10:23.635Z,8.57
2019-02-14T02:11:25.057Z,8.57
2019-02-14T02:12:26.456Z,8.60
2019-02-14T02:13:27.897Z,8.54
2019-02-14T02:14:29.293Z,8.57
2019-02-14T02:15:30.697Z,8.55
2019-02-14T02:16:32.117Z,8.58
2019-02-14T02:17:33.504Z,8.52
2019-02-14T02:18:34.913Z,8.55
2019-02-14T02:19:36.332Z,8.54
2019-02-14T02:20:37.718Z,8.58
2019-02-14T02:21:39.117Z,8.52
2019-02-14T02:22:40.528Z,8.57
2019-02-14T02:23:41.932Z,8.55
2019-02-14T02:24:43.338Z,8.50
2019-02-14T02:25:44.746Z,8.52
2019-02-14T02:26:46.174Z,8.43
2019-02-14T02:27:47.572Z,8.54
2019-02-14T02:28:48.966Z,8.61
2019-02-14T02:29:50.383Z,8.57
2019-02-14T02:30:51.788Z,8.61
2019-02-14T02:31:53.989Z,8.55
2019-02-14T02:32:55.408Z,8.43
2019-02-14T02:33:56.813Z,8.52
2019-02-14T02:34:58.238Z,8.54
2019-02-14T02:36:00.678Z,8.49
2019-02-14T02:37:01.012Z,8.52
2019-02-14T02:38:02.412Z,8.46
2019-02-14T02:39:03.808Z,8.43
2019-02-14T02:40:05.229Z,8.45
2019-02-14T02:41:06.647Z,8.43
2019-02-14T02:42:08.077Z,8.45
2019-02-14T02:43:09.479Z,8.47
2019-02-14T02:44:10.876Z,8.40
2019-02-14T02:45:12.319Z,8.40
2019-02-14T02:46:13.718Z,8.50
2019-02-14T02:47:15.169Z,8.43
2019-02-14T02:48:16.531Z,8.42
2019-02-14T02:49:17.934Z,8.43
2019-02-14T02:50:19.329Z,8.45
2019-02-14T02:51:20.745Z,8.54
2019-02-14T02:52:22.173Z,8.43
2019-02-14T02:53:23.596Z,8.43
2019-02-14T02:54:25.012Z,8.45
2019-02-14T02:55:26.440Z,8.50
2019-02-14T02:56:27.836Z,8.40
2019-02-14T02:57:29.241Z,8.49
2019-02-14T02:58:30.659Z,8.46
2019-02-14T02:59:32.045Z,8.46
2019-02-14T03:00:33.487Z,8.50
2019-02-14T03:01:34.917Z,8.55
2019-02-14T03:02:36.329Z,8.46
2019-02-14T03:03:37.740Z,8.47
2019-02-14T03:04:39.166Z,8.43
2019-02-14T03:05:40.574Z,8.43
2019-02-14T03:06:41.991Z,8.40
2019-02-14T03:07:43.389Z,8.49
2019-02-14T03:08:44.824Z,8.42
2019-02-14T03:09:46.246Z,8.45
2019-02-14T03:10:47.703Z,8.46
2019-02-14T03:11:49.090Z,8.47
2019-02-14T03:12:50.495Z,8.42
2019-02-14T03:13:51.910Z,8.47
2019-02-14T03:14:53.319Z,8.42
2019-02-14T03:15:54.736Z,8.42
2019-02-14T03:16:56.145Z,8.49
2019-02-14T03:17:57.565Z,8.47
2019-02-14T03:18:59.586Z,8.49
2019-02-14T03:20:00.344Z,8.42
2019-02-14T03:21:01.773Z,8.42
2019-02-14T03:22:03.162Z,8.36
2019-02-14T03:23:04.564Z,8.40
2019-02-14T03:24:05.970Z,8.42
2019-02-14T03:25:07.412Z,8.39
2019-02-14T03:26:08.815Z,8.37
2019-02-14T03:27:10.237Z,8.43
2019-02-14T03:28:11.648Z,8.37
2019-02-14T03:29:13.062Z,8.36
2019-02-14T03:30:14.491Z,8.40
2019-02-14T03:31:15.878Z,8.39
2019-02-14T03:32:17.301Z,8.36
2019-02-14T03:33:18.695Z,8.40
2019-02-14T03:34:20.105Z,8.39
2019-02-14T03:35:22.212Z,8.42
2019-02-14T03:36:23.629Z,8.36
2019-02-14T03:37:25.041Z,8.37
2019-02-14T03:38:26.461Z,8.39
2019-02-14T03:39:27.871Z,8.31
2019-02-14T03:40:29.277Z,8.37
2019-02-14T03:41:30.691Z,8.39
2019-02-14T03:42:32.121Z,8.31
2019-02-14T03:43:33.519Z,8.36
2019-02-14T03:44:34.923Z,8.34
2019-02-14T03:45:36.335Z,8.36
2019-02-14T03:46:37.752Z,8.36
2019-02-14T03:47:39.152Z,8.40
2019-02-14T03:48:40.582Z,8.36
2019-02-14T03:49:41.984Z,8.36
2019-02-14T03:50:44.348Z,8.32
2019-02-14T03:51:45.764Z,8.32
2019-02-14T03:52:47.180Z,8.36
2019-02-14T03:53:48.592Z,8.36
2019-02-14T03:54:49.976Z,8.29
2019-02-14T03:55:51.404Z,8.36
2019-02-14T03:56:52.806Z,8.34
2019-02-14T03:57:54.220Z,8.37
2019-02-14T03:58:55.632Z,8.37
2019-02-14T03:59:57.025Z,8.36
2019-02-14T04:00:58.426Z,8.32
2019-02-14T04:01:59.882Z,8.34
2019-02-14T04:03:01.272Z,8.34
2019-02-14T04:04:02.701Z,8.34
2019-02-14T04:05:04.109Z,8.31
2019-02-14T04:06:05.503Z,8.34
2019-02-14T04:07:06.903Z,8.34
2019-02-14T04:08:08.327Z,8.36
2019-02-14T04:09:09.727Z,8.34
2019-02-14T04:10:11.132Z,8.27
2019-02-14T04:11:12.555Z,8.36
2019-02-14T04:12:13.944Z,8.32
2019-02-14T04:13:15.345Z,8.27
2019-02-14T04:14:16.757Z,8.27
2019-02-14T04:15:18.147Z,8.28
2019-02-14T04:16:19.534Z,8.29
2019-02-14T04:17:20.942Z,8.25
2019-02-14T04:18:22.344Z,8.25
2019-02-14T04:19:23.748Z,8.25
2019-02-14T04:20:25.156Z,8.28
2019-02-14T04:21:26.551Z,8.29
2019-02-14T04:22:27.948Z,8.34
2019-02-14T04:23:29.346Z,8.24
2019-02-14T04:24:30.754Z,8.28
2019-02-14T04:25:32.148Z,8.25
2019-02-14T04:26:33.559Z,8.27
2019-02-14T04:27:34.965Z,8.22
2019-02-14T04:28:36.369Z,8.27
2019-02-14T04:29:37.752Z,8.27
2019-02-14T04:30:39.143Z,8.22
2019-02-14T04:31:40.550Z,8.18
2019-02-14T04:32:41.969Z,8.21
2019-02-14T04:33:43.364Z,8.10
2019-02-14T04:34:44.769Z,8.13
2019-02-14T04:35:46.169Z,8.09
2019-02-14T04:36:47.583Z,8.13
2019-02-14T04:37:48.995Z,8.09
2019-02-14T04:38:50.423Z,8.17
2019-02-14T04:39:51.813Z,8.20
2019-02-14T04:40:53.817Z,8.14
2019-02-14T04:41:55.203Z,8.14
2019-02-14T04:42:56.602Z,8.14
2019-02-14T04:43:57.997Z,8.17
2019-02-14T04:44:59.400Z,8.13
2019-02-14T04:46:00.798Z,8.03
2019-02-14T04:47:02.196Z,8.17
2019-02-14T04:48:03.605Z,8.12
2019-02-14T04:49:05.006Z,8.10
2019-02-14T04:50:06.442Z,8.12
2019-02-14T04:51:07.852Z,8.18
2019-02-14T04:52:09.263Z,8.12
2019-02-14T04:53:10.670Z,8.06
2019-02-14T04:54:12.710Z,8.07
2019-02-14T04:55:15.042Z,8.02
2019-02-14T04:56:16.493Z,8.03
2019-02-14T04:57:17.880Z,8.18
2019-02-14T04:58:19.266Z,8.06
2019-02-14T04:59:20.667Z,8.04
2019-02-14T05:00:22.081Z,8.09
2019-02-14T05:01:23.493Z,8.04
2019-02-14T05:02:24.899Z,8.03
2019-02-14T05:03:26.301Z,8.04
2019-02-14T05:04:27.713Z,8.03
2019-02-14T05:05:29.150Z,8.02
2019-02-14T05:06:30.553Z,8.00
2019-02-14T05:07:31.936Z,7.99
2019-02-14T05:08:33.340Z,8.03
2019-02-14T05:09:34.743Z,8.02
2019-02-14T05:10:36.139Z,8.07
2019-02-14T05:11:37.566Z,7.92
2019-02-14T05:12:38.985Z,8.03
2019-02-14T05:13:40.378Z,8.02
2019-02-14T05:14:41.782Z,7.95
2019-02-14T05:15:43.184Z,8.10
2019-02-14T05:16:44.578Z,8.07
2019-02-14T05:17:45.998Z,8.00
2019-02-14T05:18:47.418Z,8.04
2019-02-14T05:19:48.830Z,8.00
2019-02-14T05:20:50.229Z,8.14
2019-02-14T05:21:51.627Z,8.13
2019-02-14T05:22:53.032Z,7.99
2019-02-14T05:23:54.438Z,7.96
2019-02-14T05:24:55.841Z,8.04
2019-02-14T05:25:58.220Z,8.10
2019-02-14T05:26:59.643Z,8.03
2019-02-14T05:28:01.039Z,8.17
2019-02-14T05:29:02.456Z,8.06
2019-02-14T05:30:03.869Z,8.04
2019-02-14T05:31:05.258Z,8.09
2019-02-14T05:32:06.671Z,8.00
2019-02-14T05:33:08.086Z,7.96
2019-02-14T05:34:09.493Z,8.12
2019-02-14T05:35:10.895Z,8.02
2019-02-14T05:36:12.295Z,8.06
2019-02-14T05:37:13.706Z,8.02
2019-02-14T05:38:15.105Z,8.00
2019-02-14T05:39:16.525Z,7.94
2019-02-14T05:40:17.965Z,8.04
2019-02-14T05:41:19.358Z,7.96
2019-02-14T05:42:21.626Z,8.04
2019-02-14T05:43:23.076Z,8.03
2019-02-14T05:44:24.498Z,7.99
2019-02-14T05:45:25.894Z,7.94
2019-02-14T05:46:27.319Z,8.00
2019-02-14T05:47:28.745Z,8.00
2019-02-14T05:48:30.166Z,7.96
2019-02-14T05:49:31.624Z,8.02
2019-02-14T05:50:33.033Z,7.99
2019-02-14T05:51:34.429Z,7.94
2019-02-14T05:52:35.814Z,7.95
2019-02-14T05:53:37.216Z,7.96
2019-02-14T05:54:38.617Z,7.85
2019-02-14T05:55:40.019Z,7.92
2019-02-14T05:56:41.418Z,7.88
2019-02-14T05:57:42.822Z,7.89
2019-02-14T05:58:45.033Z,7.96
2019-02-14T05:59:46.420Z,7.99
2019-02-14T06:00:47.817Z,7.92
2019-02-14T06:01:49.230Z,7.96
2019-02-14T06:02:50.635Z,7.99
2019-02-14T06:03:52.045Z,7.96
2019-02-14T06:04:53.449Z,8.00
2019-02-14T06:05:54.849Z,7.96
2019-02-14T06:07:00.953Z,7.94
2019-02-14T06:07:57.623Z,8.02
2019-02-14T06:08:59.036Z,7.95
2019-02-14T06:10:00.450Z,8.00
2019-02-14T06:11:01.854Z,7.85
2019-02-14T06:12:03.260Z,7.88
2019-02-14T06:13:04.667Z,7.85
2019-02-14T06:14:06.066Z,7.84
2019-02-14T06:15:07.458Z,7.88
2019-02-14T06:16:08.843Z,7.86
2019-02-14T06:17:10.278Z,8.00
2019-02-14T06:18:11.657Z,8.02
2019-02-14T06:19:13.068Z,7.94
2019-02-14T06:20:14.501Z,7.92
2019-02-14T06:21:15.875Z,7.94
2019-02-14T06:22:17.302Z,7.85
2019-02-14T06:23:18.698Z,7.94
2019-02-14T06:24:20.123Z,8.00
2019-02-14T06:25:21.554Z,7.94
2019-02-14T06:26:23.059Z,7.94
2019-02-14T06:27:24.488Z,7.94
2019-02-14T06:28:25.922Z,7.95
2019-02-14T06:29:27.367Z,7.92
2019-02-14T06:30:28.791Z,7.84
2019-02-14T06:31:30.197Z,7.84
2019-02-14T06:32:31.625Z,7.99
2019-02-14T06:33:33.083Z,7.95
2019-02-14T06:34:34.536Z,7.94
2019-02-14T06:35:36.035Z,7.96
2019-02-14T06:36:37.540Z,7.96
2019-02-14T06:37:39.002Z,7.95
2019-02-14T06:38:40.456Z,7.91
2019-02-14T06:39:41.877Z,8.00
2019-02-14T18:43:08.240Z,5.06
2019-02-14T18:44:09.624Z,5.06
2019-02-14T18:45:11.039Z,5.02
2019-02-14T18:46:12.443Z,5.02
2019-02-14T18:47:13.836Z,4.99
2019-02-14T18:48:15.267Z,5.02
2019-02-14T18:49:16.659Z,4.99
2019-02-14T18:50:18.073Z,4.93
2019-02-14T18:51:19.454Z,4.90
2019-02-14T18:52:20.845Z,4.97
2019-02-14T18:53:22.239Z,5.01
2019-02-14T18:54:23.628Z,4.88
2019-02-14T18:55:25.020Z,4.97
2019-02-14T18:56:26.407Z,4.90
2019-02-14T18:57:27.804Z,4.94
2019-02-14T18:58:29.195Z,4.93
2019-02-14T18:59:30.607Z,4.94
2019-02-14T19:00:31.995Z,4.96
2019-02-14T19:01:33.391Z,4.96
2019-02-14T19:02:34.788Z,4.93
2019-02-14T19:03:36.172Z,4.88
2019-02-14T19:04:37.565Z,4.90
2019-02-14T19:05:38.975Z,4.90
2019-02-14T19:06:40.387Z,4.90
2019-02-14T19:07:41.794Z,4.91
2019-02-14T19:08:43.200Z,4.93
2019-02-14T19:09:44.595Z,4.96
2019-02-14T19:10:45.986Z,4.88
2019-02-14T19:11:47.388Z,4.94
2019-02-14T19:12:48.787Z,4.83
2019-02-14T19:13:50.187Z,4.86
2019-02-14T19:14:51.575Z,4.87
2019-02-14T19:15:52.962Z,4.84
2019-02-14T19:16:54.373Z,4.84
2019-02-14T19:17:55.798Z,4.87
2019-02-14T19:18:58.709Z,4.91
2019-02-14T19:19:58.682Z,4.90
2019-02-14T19:21:00.094Z,4.88
2019-02-14T19:22:01.489Z,4.80
2019-02-14T19:23:02.910Z,4.86
2019-02-14T19:24:04.361Z,4.84
2019-02-14T19:25:05.772Z,4.86
2019-02-14T19:26:07.170Z,4.84
2019-02-14T19:27:08.578Z,4.80
2019-02-14T19:28:09.993Z,4.79
2019-02-14T19:29:11.392Z,4.79
2019-02-14T19:30:12.821Z,4.80
2019-02-14T19:31:14.236Z,4.75
2019-02-14T19:32:15.645Z,4.80
2019-02-14T19:33:17.070Z,4.79
2019-02-14T19:34:18.457Z,4.75
2019-02-14T19:35:23.138Z,4.72
2019-02-14T19:36:21.253Z,4.71
2019-02-14T19:37:22.681Z,4.71
2019-02-14T19:38:24.066Z,4.72
2019-02-14T19:39:26.432Z,4.72
2019-02-14T19:40:27.848Z,4.74
2019-02-14T19:41:29.247Z,4.72
2019-02-14T19:42:30.656Z,4.65
2019-02-14T19:43:32.068Z,4.64
2019-02-14T19:44:33.532Z,4.64
2019-02-14T19:45:36.853Z,4.62
2019-02-14T19:46:36.389Z,4.64
2019-02-14T19:47:38.402Z,4.59
2019-02-14T19:48:39.848Z,4.54
2019-02-14T19:49:41.259Z,4.53
2019-02-14T19:50:42.729Z,4.57
2019-02-14T19:51:44.877Z,4.51
2019-02-14T19:52:46.349Z,4.49
2019-02-14T19:53:47.816Z,4.57
2019-02-14T19:54:49.263Z,4.53
2019-02-14T19:55:50.696Z,4.46
2019-02-14T19:56:52.880Z,4.50
2019-02-14T19:57:54.300Z,4.46
2019-02-14T19:58:55.711Z,4.43
2019-02-14T19:59:58.065Z,4.46
2019-02-14T20:00:59.474Z,4.42
2019-02-14T20:02:00.888Z,4.57
2019-02-14T20:03:02.313Z,4.42
2019-02-14T20:04:03.736Z,4.43
2019-02-14T20:05:05.173Z,4.42
2019-02-14T20:06:06.600Z,4.43
2019-02-14T20:07:08.124Z,4.39
2019-02-14T20:08:09.568Z,4.29
2019-02-14T20:09:11.799Z,4.34
2019-02-14T20:10:12.561Z,4.29
2019-02-14T20:11:13.903Z,4.31
2019-02-14T20:12:16.098Z,4.29
2019-02-14T20:13:18.341Z,4.29
2019-02-14T20:14:20.679Z,4.26
2019-02-14T20:15:23.874Z,4.29
2019-02-14T20:16:25.391Z,4.18
2019-02-14T20:17:26.872Z,4.31
2019-02-14T20:18:28.989Z,4.24
2019-02-14T20:19:30.518Z,4.24
2019-02-14T20:20:32.587Z,4.25
2019-02-14T20:21:34.041Z,4.13
2019-02-14T20:22:36.314Z,4.18
2019-02-14T20:23:37.741Z,4.16
2019-02-14T20:24:39.195Z,4.20
2019-02-14T20:25:40.624Z,4.17
2019-02-14T20:26:43.487Z,4.06
2019-02-14T20:27:45.693Z,4.04
2019-02-14T20:28:47.731Z,4.08
2019-02-14T20:29:49.162Z,4.06
2019-02-14T20:30:50.587Z,4.07
2019-02-14T20:31:51.999Z,4.06
2019-02-14T20:32:53.481Z,4.00
2019-02-14T20:33:54.902Z,4.02
2019-02-14T20:34:56.310Z,3.98
2019-02-14T20:35:57.759Z,3.89
2019-02-14T20:36:59.185Z,3.98
2019-02-14T20:38:00.618Z,3.92
2019-02-14T20:39:02.085Z,3.89
2019-02-14T20:40:03.521Z,3.86
2019-02-14T20:41:05.483Z,3.88
2019-02-14T20:42:07.534Z,3.92
2019-02-14T20:43:08.931Z,3.88
2019-02-14T20:44:10.354Z,3.88
2019-02-14T20:45:11.795Z,3.84
2019-02-14T20:46:13.189Z,3.74
2019-02-14T20:47:14.574Z,3.81
2019-02-14T20:48:16.002Z,3.78
2019-02-14T20:49:17.463Z,3.70
2019-02-14T20:50:19.754Z,3.81
2019-02-14T20:51:21.203Z,3.70
2019-02-14T20:52:24.648Z,3.71
2019-02-14T20:53:26.077Z,3.67
2019-02-14T20:54:27.465Z,3.70
2019-02-14T20:55:28.889Z,3.64
2019-02-14T20:56:30.315Z,3.63
2019-02-14T20:57:31.708Z,3.67
2019-02-14T20:58:33.129Z,3.63
2019-02-14T20:59:34.531Z,3.64
2019-02-14T21:00:35.937Z,3.67
2019-02-14T21:01:37.335Z,3.60
2019-02-14T21:02:38.817Z,3.57
2019-02-14T21:03:40.123Z,3.54
2019-02-14T21:04:41.539Z,3.54
2019-02-14T21:05:42.936Z,3.49
2019-02-14T21:06:45.198Z,3.53
2019-02-14T21:07:46.595Z,3.46
2019-02-14T21:08:48.002Z,3.49
2019-02-14T21:09:49.408Z,3.37
2019-02-14T21:10:50.839Z,3.41
2019-02-14T21:11:54.784Z,3.44
2019-02-14T21:12:53.584Z,3.44
2019-02-14T21:13:54.996Z,3.42
2019-02-14T21:14:56.414Z,3.44
2019-02-14T21:15:57.805Z,3.37
2019-02-14T21:16:59.208Z,3.45
2019-02-14T21:18:00.613Z,3.37
2019-02-14T21:19:02.004Z,3.39
2019-02-14T21:20:03.396Z,3.42
2019-02-14T21:21:04.803Z,3.39
2019-02-14T21:22:17.297Z,3.33
2019-02-14T21:23:07.609Z,3.41
2019-02-14T21:24:09.042Z,3.35
2019-02-14T21:25:10.439Z,3.39
2019-02-14T21:26:11.863Z,3.30
2019-02-14T21:27:13.236Z,3.34
2019-02-14T21:28:14.648Z,3.22
2019-02-14T21:29:16.032Z,3.19
2019-02-14T21:30:17.436Z,3.26
2019-02-14T21:31:18.822Z,3.22
2019-02-14T21:32:20.217Z,3.13
2019-02-14T21:33:21.623Z,3.08
2019-02-14T21:34:23.016Z,3.22
2019-02-14T21:35:24.397Z,3.22
2019-02-14T21:36:25.791Z,3.25
2019-02-14T21:37:27.224Z,3.25
2019-02-14T21:38:28.623Z,3.13
2019-02-14T21:39:30.006Z,3.17
2019-02-14T21:40:31.400Z,3.17
2019-02-14T21:41:32.794Z,3.10
2019-02-14T21:42:34.201Z,3.10
2019-02-14T21:43:35.602Z,3.17
2019-02-14T21:44:37.027Z,3.15
2019-02-14T21:45:38.470Z,3.05
2019-02-14T21:46:39.875Z,3.08
2019-02-14T21:47:41.268Z,3.04
2019-02-14T21:48:42.661Z,3.05
2019-02-14T21:49:44.048Z,3.02
2019-02-14T21:50:45.461Z,3.04
2019-02-14T21:51:46.912Z,3.05
2019-02-14T21:52:52.278Z,3.04
2019-02-14T21:53:53.613Z,3.05
2019-02-14T21:55:00.044Z,3.01
2019-02-14T21:56:06.467Z,2.98
2019-02-14T21:57:11.299Z,2.99
2019-02-14T21:58:12.692Z,3.01
2019-02-14T21:59:14.083Z,2.95
2019-02-14T22:00:15.691Z,2.92
2019-02-14T22:01:18.244Z,2.90
2019-02-14T22:02:19.652Z,2.92
2019-02-14T22:03:21.061Z,2.99
2019-02-14T22:04:23.915Z,2.84
2019-02-14T22:05:29.894Z,2.97
2019-02-14T22:06:32.423Z,2.98
2019-02-14T22:07:35.811Z,2.86
2019-02-14T22:08:39.776Z,2.86
2019-02-14T22:09:41.160Z,2.89
2019-02-14T22:10:42.568Z,2.92
2019-02-14T22:11:44.127Z,2.87
2019-02-14T22:12:48.772Z,2.86
2019-02-14T22:13:50.166Z,2.80
2019-02-14T22:14:54.543Z,2.80
2019-02-14T22:15:58.350Z,2.81
2019-02-14T22:16:59.566Z,2.74
2019-02-14T22:18:00.961Z,2.74
2019-02-14T22:19:06.466Z,2.80
2019-02-14T22:20:14.657Z,2.68
2019-02-14T22:21:18.023Z,2.69
2019-02-14T22:22:22.396Z,2.68
2019-02-14T22:23:23.727Z,2.66
2019-02-14T22:24:27.752Z,2.68
2019-02-14T22:25:31.909Z,2.56
2019-02-14T22:26:33.712Z,2.65
2019-02-14T22:27:34.741Z,2.55
2019-02-14T22:28:36.157Z,2.61
2019-02-14T22:29:44.154Z,2.59
2019-02-14T22:30:50.083Z,2.56
2019-02-14T22:31:54.514Z,2.53
2019-02-14T22:32:55.893Z,2.41
2019-02-14T22:34:02.464Z,2.43
2019-02-14T22:35:03.861Z,2.43
2019-02-14T22:36:09.214Z,2.51
2019-02-14T22:37:10.599Z,2.45
2019-02-14T22:38:19.840Z,2.50
2019-02-14T22:39:21.227Z,2.43
2019-02-14T22:40:24.940Z,2.44
2019-02-14T22:41:30.844Z,2.44
2019-02-14T22:42:35.864Z,2.45
2019-02-14T22:43:40.155Z,2.41
2019-02-14T22:44:43.955Z,2.33
2019-02-14T22:45:45.352Z,2.38
2019-02-14T22:46:46.849Z,2.36
2019-02-14T22:47:49.853Z,2.37
2019-02-14T22:48:54.545Z,2.37
2019-02-14T22:49:56.580Z,2.32
2019-02-14T22:50:59.148Z,2.36
2019-02-14T22:52:03.534Z,2.33
2019-02-14T22:53:05.510Z,2.30
2019-02-14T22:54:06.911Z,2.32
2019-02-14T22:55:14.447Z,2.26
2019-02-14T22:56:21.715Z,2.25
2019-02-14T22:57:29.090Z,2.30
2019-02-14T22:58:30.440Z,2.26
2019-02-14T22:59:33.683Z,2.19
2019-02-14T23:00:39.435Z,2.29
2019-02-14T23:01:40.830Z,2.14
2019-02-14T23:02:46.716Z,2.15
2019-02-14T23:03:50.540Z,2.23
2019-02-14T23:04:51.981Z,2.14
2019-02-14T23:05:57.545Z,2.11
2019-02-14T23:06:58.927Z,2.12
2019-02-14T23:08:04.150Z,2.11
2019-02-14T23:09:05.532Z,2.07
2019-02-14T23:10:06.945Z,2.07
2019-02-14T23:11:08.329Z,2.00
2019-02-14T23:12:09.715Z,2.01
2019-02-14T23:13:11.089Z,2.07
2019-02-14T23:14:12.474Z,2.04
2019-02-14T23:15:13.867Z,2.00
2019-02-14T23:16:15.247Z,2.05
2019-02-14T23:17:16.635Z,2.05
2019-02-14T23:18:24.833Z,2.00
2019-02-14T23:19:26.202Z,1.95
2019-02-14T23:20:27.582Z,1.88
2019-02-14T23:21:28.985Z,1.88
2019-02-14T23:22:30.350Z,1.95
2019-02-14T23:23:31.732Z,1.93
2019-02-14T23:24:33.115Z,1.86
2019-02-14T23:25:34.502Z,1.89
2019-02-14T23:26:35.893Z,1.93
2019-02-14T23:27:37.273Z,1.89
2019-02-14T23:28:38.655Z,1.90
2019-02-14T23:29:40.026Z,1.93
2019-02-14T23:30:41.409Z,1.89
2019-02-14T23:31:42.795Z,1.79
2019-02-14T23:32:44.211Z,1.75
2019-02-14T23:33:45.549Z,1.83
2019-02-14T23:34:46.938Z,1.81
2019-02-14T23:35:48.331Z,1.72
2019-02-14T23:36:49.710Z,1.75
2019-02-14T23:37:51.093Z,1.70
2019-02-14T23:38:52.486Z,1.65
2019-02-14T23:39:53.870Z,1.64
2019-02-14T23:40:55.258Z,1.70
2019-02-14T23:41:56.643Z,1.74
2019-02-14T23:43:04.324Z,1.77
2019-02-14T23:44:00.344Z,1.74
2019-02-14T23:45:01.741Z,1.74
2019-02-14T23:46:03.130Z,1.65
2019-02-14T23:47:04.523Z,1.65
2019-02-14T23:48:05.904Z,1.61
2019-02-14T23:49:07.963Z,1.60
2019-02-14T23:50:09.353Z,1.70
2019-02-14T23:51:10.739Z,1.61
2019-02-14T23:52:12.128Z,1.63
2019-02-14T23:53:13.510Z,1.57
2019-02-14T23:54:14.896Z,1.60
2019-02-14T23:55:16.287Z,1.57
2019-02-14T23:56:17.673Z,1.61
2019-02-14T23:57:19.071Z,1.63
2019-02-14T23:58:20.463Z,1.49
2019-02-14T23:59:21.867Z,1.54
